サンパウロ/グアルーリョス の空港の天気 - METARとTAF

グアルーリョス国際空港 (サンパウロ) ( SBGR / GRU ) - ブラジル サンパウロ州サンパウロ市
飛行場実況気象(Metar)
観測時間01/25 18:00 BRST (01/25 20:00 UTC)
風向・風速西北西 3m/s
視程10km以上
天気現象周辺でしゅう雨
少しの雲 雲底高度 1520m
気温30℃
湿度43%
気圧1013hPa
METARSBGR 252000Z 29006KT 9999 VCSH FEW050TCU 30/16 Q1013
過去の天気等 Google飛行場航空写真 Wunderground天気予報

過去48時間のMETAR

飛行場予報(TAF)
発表時間: 1/25 14:00 BRST (1/25 16:00 UTC)
予報対象時間: 25日16時 BRST ~ 26日22時 BRST
風向・風速北北西 4m/s
視程10km以上
全天の4割程度の雲 雲底高度 910m
25日16時 BRST ~ 25日19時 BRST に一時的に
風向・風速西南西 8m/s
視程5000m
天気現象雷雨
全天の4割程度の雲 雲底高度 210m
全天の8割程度の雲 雲底高度 460m
少しの積乱雲 雲底高度 1370m
25日19時 BRST ~ 25日22時 BRST に一時的に
風向・風速南南東 4m/s
視程6000m
全天の8割程度の雲 雲底高度 370m
25日22時 BRST ~ 25日24時 BRST に徐々に
風向・風速東北東 3m/s
視程8000m
少しの雲 雲底高度 700m
26日6時 BRST から 確率 30% で
視程5000m
天気現象もや
全天の8割程度の雲 雲底高度 210m
26日10時 BRST ~ 26日12時 BRST に徐々に
風向・風速北東 3m/s
視程10km以上
全天の4割程度の雲 雲底高度 910m
26日14時 BRST ~ 26日16時 BRST に徐々に
風向・風速北北西 5m/s
全天の8割程度の雲 雲底高度 1070m
少しの塔状積雲 雲底高度 1220m
26日16時 BRST ~ 26日22時 BRST に一時的に
風向・風速南 5m/s
視程5000m
天気現象雷雨 もや
全天の8割程度の雲 雲底高度 460m
少しの積乱雲 雲底高度 1370m
TAF SBGR 251600Z 2518/2624 34008KT 9999 SCT030 TN20/2608Z TX31/2618Z
TEMPO 2518/2521 25015KT 5000 TSRA SCT007 BKN015 FEW045CB
TEMPO 2521/2524 15007KT 6000 BKN012
BECMG 2600/2602 06005KT 8000 FEW023
PROB30 2608/2611 5000 BR BKN007
BECMG 2612/2614 04005KT 9999 SCT030
BECMG 2616/2618 34010KT BKN035 FEW040TCU
TEMPO 2618/2624 18010KT 5000 TSRA BR BKN015 FEW045CB RMK PGD